Time;durP1;ratioP1;P1;durP2;ratioP2;P2;SDS_P1;SDS_P2;PMS_P1;PMS_P2;Temp;Humidity;BMP_temperature;BMP_pressure;BME280_temperature;BME280_humidity;BME280_pressure;Samples;Min_cycle;Max_cycle;Signal;HPM_P1;HPM_P2
2023/06/19 00:01:29;;;;;;;0.30;0.30;;;23.10;94.60;;;;;;5117255;28;20042;-71
2023/06/19 00:03:55;;;;;;;0.30;0.30;;;23.10;94.10;;;;;;5117082;28;20464;-70
2023/06/19 00:06:20;;;;;;;0.43;0.40;;;23.20;94.00;;;;;;5117609;28;20051;-69
2023/06/19 00:08:46;;;;;;;0.30;0.30;;;23.20;93.90;;;;;;5117003;28;20404;-70
2023/06/19 00:11:12;;;;;;;0.97;0.87;;;23.20;93.90;;;;;;5116991;28;20140;-70
2023/06/19 00:13:37;;;;;;;0.40;0.40;;;23.20;93.80;;;;;;5116881;28;20230;-70
2023/06/19 00:16:03;;;;;;;0.30;0.30;;;23.20;93.70;;;;;;5116882;28;20099;-70
2023/06/19 00:18:29;;;;;;;0.77;0.77;;;23.20;93.40;;;;;;5116803;28;20353;-70
2023/06/19 00:20:56;;;;;;;0.70;0.70;;;23.30;93.40;;;;;;5116608;28;20042;-70
2023/06/19 00:23:22;;;;;;;0.40;0.40;;;23.30;92.90;;;;;;5116676;28;20118;-71
2023/06/19 00:25:48;;;;;;;0.40;0.40;;;23.30;93.20;;;;;;5116938;28;20376;-70
2023/06/19 00:28:14;;;;;;;0.33;0.33;;;23.30;93.30;;;;;;5116550;28;20084;-70
2023/06/19 00:30:41;;;;;;;1.17;0.65;;;23.30;93.20;;;;;;5115693;28;20044;-70
2023/06/19 00:33:07;;;;;;;;;;;23.40;93.30;;;;;;5116927;28;20039;-71
2023/06/19 00:35:33;;;;;;;0.30;0.30;;;23.30;93.10;;;;;;5116461;28;20359;-70
2023/06/19 00:38:01;;;;;;;0.53;0.50;;;23.30;93.30;;;;;;5116349;28;20089;-70
2023/06/19 00:40:29;;;;;;;0.45;0.40;;;23.30;93.10;;;;;;5116272;28;20035;-71
2023/06/19 00:42:54;;;;;;;0.30;0.30;;;23.40;93.00;;;;;;5116362;28;20463;-70
2023/06/19 00:45:20;;;;;;;0.30;0.30;;;23.40;93.50;;;;;;5116570;28;20084;-71
2023/06/19 00:47:46;;;;;;;0.30;0.30;;;23.40;92.90;;;;;;5116353;28;20035;-70
2023/06/19 00:50:12;;;;;;;0.30;0.30;;;23.30;93.30;;;;;;5116125;28;20039;-71
2023/06/19 00:52:38;;;;;;;0.93;0.83;;;23.40;92.90;;;;;;5116376;28;20044;-71
2023/06/19 00:55:07;;;;;;;0.55;0.55;;;23.40;93.20;;;;;;5116102;28;20130;-70
2023/06/19 00:57:33;;;;;;;0.50;0.50;;;23.40;93.00;;;;;;5114844;28;20483;-70
2023/06/19 00:59:58;;;;;;;0.45;0.45;;;23.40;93.20;;;;;;5116180;28;20100;-70
2023/06/19 01:02:25;;;;;;;0.40;0.40;;;23.40;93.20;;;;;;5115817;28;20043;-70
2023/06/19 01:04:51;;;;;;;;;;;23.30;93.20;;;;;;5115754;28;20571;-70
2023/06/19 01:07:24;;;;;;;2.85;2.22;;;23.30;93.20;;;;;;5115879;28;19915;-71
2023/06/19 01:09:58;;;;;;;0.55;0.52;;;23.30;93.40;;;;;;5116044;28;20043;-70
2023/06/19 01:12:30;;;;;;;0.50;0.50;;;23.30;93.40;;;;;;5115930;28;20038;-70
2023/06/19 01:15:02;;;;;;;0.40;0.40;;;23.20;93.50;;;;;;5115702;28;20078;-70
2023/06/19 01:17:29;;;;;;;0.50;0.50;;;23.20;93.60;;;;;;5115596;27;20083;-70
2023/06/19 01:19:56;;;;;;;0.40;0.40;;;23.20;93.70;;;;;;5115893;28;20044;-70
2023/06/19 01:22:31;;;;;;;0.60;0.60;;;23.20;93.90;;;;;;5115439;28;20110;-69
2023/06/19 01:24:57;;;;;;;0.40;0.40;;;23.10;94.20;;;;;;5115472;28;20134;-71
2023/06/19 01:27:29;;;;;;;1.02;0.50;;;23.10;94.40;;;;;;5115390;28;20040;-70
2023/06/19 01:29:56;;;;;;;0.60;0.60;;;23.00;94.20;;;;;;5115347;28;20035;-71
2023/06/19 01:32:37;;;;;;;0.40;0.40;;;23.00;94.50;;;;;;5115408;28;20046;-71
2023/06/19 01:35:04;;;;;;;0.55;0.55;;;23.00;95.00;;;;;;5114996;28;20497;-70
2023/06/19 01:37:33;;;;;;;0.50;0.50;;;23.00;94.80;;;;;;5115233;28;20048;-71
2023/06/19 01:40:01;;;;;;;0.40;0.40;;;22.90;95.00;;;;;;5115214;28;20096;-71
2023/06/19 01:42:27;;;;;;;0.40;0.40;;;22.90;94.90;;;;;;5114979;28;20039;-70
2023/06/19 01:44:53;;;;;;;0.40;0.40;;;22.90;95.10;;;;;;5115144;28;20036;-69
2023/06/19 01:47:20;;;;;;;0.65;0.65;;;22.80;95.10;;;;;;5115405;28;20126;-70
2023/06/19 01:49:48;;;;;;;0.52;0.52;;;22.90;95.40;;;;;;5115379;28;20047;-70
2023/06/19 01:52:14;;;;;;;0.35;0.35;;;22.80;95.40;;;;;;5115179;28;20042;-71
2023/06/19 01:54:40;;;;;;;0.47;0.47;;;22.80;95.50;;;;;;5114894;28;20032;-70
2023/06/19 01:57:06;;;;;;;0.40;0.40;;;22.80;95.50;;;;;;5114833;28;20043;-71
2023/06/19 01:59:32;;;;;;;0.55;0.55;;;22.80;95.70;;;;;;5114861;28;20067;-70
2023/06/19 02:01:57;;;;;;;0.43;0.43;;;22.70;95.80;;;;;;5114895;28;20148;-70
2023/06/19 02:04:23;;;;;;;0.60;0.60;;;22.70;95.80;;;;;;5114626;28;20544;-70
2023/06/19 02:06:48;;;;;;;0.87;0.87;;;22.70;95.90;;;;;;5114725;28;20048;-69
2023/06/19 02:09:14;;;;;;;0.57;0.57;;;22.60;96.00;;;;;;5114587;28;20040;-70
2023/06/19 02:11:40;;;;;;;0.40;0.40;;;22.60;96.10;;;;;;5114634;28;20078;-70
2023/06/19 02:14:05;;;;;;;0.60;0.60;;;22.60;96.10;;;;;;5114566;28;20089;-69
2023/06/19 02:16:32;;;;;;;;;;;22.50;96.20;;;;;;5115658;28;20448;-70
2023/06/19 02:18:57;;;;;;;0.47;0.47;;;22.60;96.30;;;;;;5114506;28;19966;-70
2023/06/19 02:21:23;;;;;;;0.50;0.50;;;22.60;96.40;;;;;;5114680;28;20043;-70
2023/06/19 02:23:49;;;;;;;0.47;0.47;;;22.60;96.60;;;;;;5114397;28;20127;-70
2023/06/19 02:26:15;;;;;;;0.65;0.50;;;22.60;96.70;;;;;;5114523;28;20138;-70
2023/06/19 02:28:41;;;;;;;0.50;0.50;;;22.50;96.60;;;;;;5114393;28;20490;-70
2023/06/19 02:31:06;;;;;;;0.50;0.50;;;22.50;96.70;;;;;;5114118;28;20414;-70
2023/06/19 02:33:32;;;;;;;0.87;0.70;;;22.50;97.00;;;;;;5114353;28;20050;-70
2023/06/19 02:35:58;;;;;;;0.30;0.30;;;22.50;96.80;;;;;;5114349;28;20081;-70
2023/06/19 02:38:25;;;;;;;0.55;0.55;;;22.50;97.20;;;;;;5114308;28;20066;-69
2023/06/19 02:40:50;;;;;;;0.40;0.40;;;22.50;97.30;;;;;;5114147;28;20497;-69
2023/06/19 02:43:16;;;;;;;0.57;0.57;;;22.50;97.90;;;;;;5114116;28;20044;-69
2023/06/19 02:45:42;;;;;;;0.50;0.50;;;22.50;97.70;;;;;;5114156;28;20043;-69
2023/06/19 02:48:07;;;;;;;0.40;0.40;;;22.50;97.90;;;;;;5114192;28;20035;-69
2023/06/19 02:50:33;;;;;;;0.50;0.50;;;22.40;98.50;;;;;;5114405;28;20047;-69
2023/06/19 02:52:59;;;;;;;0.50;0.50;;;22.40;98.30;;;;;;5114070;28;20035;-70
2023/06/19 02:55:24;;;;;;;0.50;0.50;;;22.40;98.40;;;;;;5114136;28;20104;-69
2023/06/19 02:57:50;;;;;;;0.30;0.30;;;22.40;98.80;;;;;;5114074;28;20039;-70
2023/06/19 03:00:15;;;;;;;0.33;0.33;;;22.40;99.50;;;;;;5114053;28;20040;-70
2023/06/19 03:02:41;;;;;;;0.83;0.50;;;22.30;99.60;;;;;;5113979;28;20039;-70
2023/06/19 03:05:07;;;;;;;0.30;0.30;;;22.30;99.30;;;;;;5114289;28;20047;-70
2023/06/19 03:07:33;;;;;;;0.30;0.30;;;22.30;99.40;;;;;;5114044;28;20281;-70
2023/06/19 03:09:58;;;;;;;0.73;0.53;;;22.30;99.80;;;;;;5113175;28;20276;-69
2023/06/19 03:12:24;;;;;;;0.30;0.30;;;22.30;99.90;;;;;;5113879;28;20092;-70
2023/06/19 03:14:49;;;;;;;0.30;0.30;;;22.30;99.90;;;;;;5113814;28;20412;-70
2023/06/19 03:17:15;;;;;;;0.30;0.30;;;22.30;99.90;;;;;;5114189;28;20028;-69
2023/06/19 03:19:41;;;;;;;0.67;0.53;;;22.20;99.90;;;;;;5114089;28;20035;-70
2023/06/19 03:22:06;;;;;;;0.37;0.37;;;22.20;99.90;;;;;;5117021;28;20100;-70
2023/06/19 03:24:32;;;;;;;0.40;0.40;;;22.20;99.90;;;;;;5117736;28;20479;-70
2023/06/19 03:26:57;;;;;;;0.70;0.40;;;22.30;99.90;;;;;;5117718;28;20062;-70
2023/06/19 03:29:23;;;;;;;0.40;0.40;;;22.20;99.90;;;;;;5117696;28;20053;-70
2023/06/19 03:31:49;;;;;;;0.63;0.40;;;22.10;99.90;;;;;;5118032;28;20156;-70
2023/06/19 03:34:14;;;;;;;0.40;0.40;;;22.20;99.90;;;;;;5117652;28;20031;-69
2023/06/19 03:36:40;;;;;;;0.40;0.40;;;22.10;99.90;;;;;;5117645;27;20147;-69
2023/06/19 03:39:05;;;;;;;1.40;0.83;;;22.20;99.90;;;;;;5117799;28;20043;-69
2023/06/19 03:41:31;;;;;;;0.70;0.70;;;22.20;99.90;;;;;;5117431;28;20112;-69
2023/06/19 03:43:56;;;;;;;0.40;0.40;;;22.10;99.90;;;;;;5117422;28;20409;-70
2023/06/19 03:46:22;;;;;;;0.77;0.53;;;22.10;99.90;;;;;;5117424;28;20035;-70
2023/06/19 03:48:48;;;;;;;0.60;0.60;;;22.10;99.90;;;;;;5117410;28;20047;-70
2023/06/19 03:51:14;;;;;;;0.40;0.40;;;22.20;99.90;;;;;;5116634;28;20066;-70
2023/06/19 03:53:39;;;;;;;0.53;0.53;;;22.20;99.90;;;;;;5117559;28;20050;-69
2023/06/19 03:56:05;;;;;;;0.57;0.57;;;22.10;99.90;;;;;;5117300;28;20320;-70
2023/06/19 03:58:31;;;;;;;0.40;0.40;;;22.10;99.90;;;;;;5117128;28;20122;-70
2023/06/19 04:00:56;;;;;;;0.30;0.30;;;22.10;99.90;;;;;;5117081;28;20043;-70
2023/06/19 04:03:22;;;;;;;0.40;0.40;;;22.00;99.90;;;;;;5117640;28;20456;-70
2023/06/19 04:05:48;;;;;;;0.38;0.38;;;22.00;99.90;;;;;;5115534;28;20059;-70
2023/06/19 04:08:13;;;;;;;0.43;0.43;;;22.00;99.90;;;;;;5117028;27;20054;-69
2023/06/19 04:10:39;;;;;;;0.30;0.30;;;22.00;99.90;;;;;;5116945;28;20039;-70
2023/06/19 04:13:06;;;;;;;0.57;0.57;;;22.00;99.90;;;;;;5116831;28;20071;-69
2023/06/19 04:15:32;;;;;;;0.47;0.47;;;22.00;99.90;;;;;;5117359;28;20050;-70
2023/06/19 04:18:00;;;;;;;0.30;0.30;;;22.10;99.90;;;;;;5115820;28;20047;-70
2023/06/19 04:20:26;;;;;;;0.30;0.30;;;22.10;99.90;;;;;;5116731;28;20050;-70
2023/06/19 04:22:52;;;;;;;0.45;0.45;;;22.10;99.90;;;;;;5116687;28;20032;-70
2023/06/19 04:25:18;;;;;;;2.53;1.60;;;22.10;99.90;;;;;;5116415;28;20249;-69
2023/06/19 04:27:44;;;;;;;0.65;0.65;;;22.10;99.90;;;;;;5116605;28;20040;-69
2023/06/19 04:30:11;;;;;;;0.57;0.40;;;22.10;99.90;;;;;;5116614;28;20043;-70
2023/06/19 04:32:40;;;;;;;0.30;0.30;;;22.00;99.90;;;;;;5115213;28;20044;-70
2023/06/19 04:35:07;;;;;;;0.30;0.30;;;22.00;99.90;;;;;;5116578;28;20425;-70
2023/06/19 04:37:33;;;;;;;0.40;0.40;;;22.00;99.90;;;;;;5116362;28;20042;-69
2023/06/19 04:39:58;;;;;;;0.43;0.43;;;22.00;99.90;;;;;;5116378;28;20040;-69
2023/06/19 04:42:24;;;;;;;0.50;0.50;;;22.00;99.90;;;;;;5116250;28;20043;-69
2023/06/19 04:44:50;;;;;;;0.40;0.40;;;22.00;99.90;;;;;;5116291;28;20039;-70
2023/06/19 04:47:18;;;;;;;0.30;0.30;;;21.90;99.90;;;;;;5116250;28;20081;-70
2023/06/19 04:49:44;;;;;;;0.30;0.30;;;21.90;99.90;;;;;;5115986;28;20528;-70
2023/06/19 04:52:09;;;;;;;0.30;0.30;;;21.90;99.90;;;;;;5116423;28;20032;-70
2023/06/19 04:54:35;;;;;;;0.53;0.53;;;21.90;99.90;;;;;;5116087;28;20128;-70
2023/06/19 04:57:01;;;;;;;0.40;0.40;;;21.90;99.90;;;;;;5115994;28;20040;-69
2023/06/19 04:59:27;;;;;;;0.50;0.50;;;21.90;99.90;;;;;;5114563;28;20036;-69
2023/06/19 05:01:54;;;;;;;0.30;0.30;;;22.00;99.90;;;;;;5115857;28;20042;-69
2023/06/19 05:04:20;;;;;;;0.30;0.30;;;22.00;99.90;;;;;;5115518;28;20160;-71
2023/06/19 05:06:46;;;;;;;0.28;0.28;;;22.10;99.90;;;;;;5116060;28;20043;-70
2023/06/19 05:09:11;;;;;;;0.30;0.30;;;22.10;99.90;;;;;;5115761;28;20046;-70
2023/06/19 05:11:37;;;;;;;0.27;0.27;;;22.10;99.90;;;;;;5115405;28;20039;-69
2023/06/19 05:14:03;;;;;;;0.30;0.30;;;22.10;99.90;;;;;;5115743;28;20464;-69
2023/06/19 05:16:28;;;;;;;0.30;0.30;;;22.00;99.90;;;;;;5115641;28;20084;-70
2023/06/19 05:18:54;;;;;;;0.30;0.30;;;22.00;99.90;;;;;;5114657;28;20092;-70
2023/06/19 05:21:19;;;;;;;0.40;0.40;;;21.90;99.90;;;;;;5115366;28;20114;-69
2023/06/19 05:23:50;;;;;;;0.87;0.87;;;21.90;99.90;;;;;;5115612;28;20405;-70
2023/06/19 05:26:19;;;;;;;0.82;0.68;;;21.90;99.90;;;;;;5115490;28;20088;-71
2023/06/19 05:28:45;;;;;;;0.30;0.30;;;21.80;99.90;;;;;;5115392;27;20127;-69
2023/06/19 05:31:10;;;;;;;0.50;0.50;;;21.80;99.90;;;;;;5115340;28;20082;-70
2023/06/19 05:33:36;;;;;;;0.30;0.30;;;21.70;99.90;;;;;;5114974;28;20391;-69
2023/06/19 05:36:02;;;;;;;0.70;0.50;;;21.80;99.90;;;;;;5115194;28;20039;-69
2023/06/19 05:38:30;;;;;;;0.47;0.30;;;21.80;99.90;;;;;;5115395;28;20035;-70
2023/06/19 05:40:57;;;;;;;0.57;0.57;;;21.80;99.90;;;;;;5114991;28;20039;-69
2023/06/19 05:43:24;;;;;;;0.30;0.30;;;21.80;99.90;;;;;;5114748;28;20063;-70
2023/06/19 05:45:50;;;;;;;0.30;0.30;;;22.00;99.90;;;;;;5115394;28;20044;-70
2023/06/19 05:48:15;;;;;;;0.30;0.30;;;22.30;99.90;;;;;;5115190;28;20524;-70
2023/06/19 05:50:41;;;;;;;0.40;0.40;;;22.50;99.90;;;;;;5115001;28;20032;-70
2023/06/19 05:53:06;;;;;;;0.30;0.30;;;22.70;99.90;;;;;;5114973;28;20036;-70
2023/06/19 05:55:32;;;;;;;0.30;0.30;;;22.80;99.90;;;;;;5114875;28;20043;-69
2023/06/19 05:58:01;;;;;;;0.30;0.30;;;22.90;99.90;;;;;;5115377;28;20032;-70
2023/06/19 06:00:27;;;;;;;0.75;0.75;;;22.90;99.90;;;;;;5114845;28;20047;-70
2023/06/19 06:02:53;;;;;;;0.40;0.40;;;23.00;99.90;;;;;;5114769;28;20031;-70
2023/06/19 06:05:20;;;;;;;0.37;0.37;;;23.20;99.90;;;;;;5114534;28;20044;-70
2023/06/19 06:07:46;;;;;;;0.30;0.30;;;23.30;99.90;;;;;;5114696;28;20606;-69
2023/06/19 06:10:12;;;;;;;0.30;0.30;;;23.20;99.90;;;;;;5114604;28;20050;-70
2023/06/19 06:12:37;;;;;;;0.30;0.30;;;23.30;99.90;;;;;;5114597;28;20036;-70
2023/06/19 06:15:05;;;;;;;0.30;0.30;;;23.40;99.90;;;;;;5114290;28;20050;-69
2023/06/19 06:17:31;;;;;;;0.30;0.30;;;23.50;99.90;;;;;;5114580;28;20117;-70
2023/06/19 06:19:56;;;;;;;0.30;0.30;;;23.50;99.90;;;;;;5114531;28;20047;-70
2023/06/19 06:22:22;;;;;;;0.40;0.40;;;23.40;99.90;;;;;;5114424;28;20036;-70
2023/06/19 06:24:47;;;;;;;0.30;0.30;;;23.40;99.90;;;;;;5114677;28;20069;-70
2023/06/19 06:27:13;;;;;;;0.30;0.30;;;23.40;99.90;;;;;;5114391;28;20498;-69
2023/06/19 06:29:39;;;;;;;0.40;0.40;;;23.10;99.90;;;;;;5114230;28;20042;-69
2023/06/19 06:32:07;;;;;;;0.30;0.30;;;23.20;99.90;;;;;;5114479;28;20107;-70
2023/06/19 06:34:33;;;;;;;0.40;0.40;;;23.20;99.90;;;;;;5114300;28;20043;-70
2023/06/19 06:36:59;;;;;;;;;;;23.20;99.90;;;;;;5114712;28;20435;-70
2023/06/19 06:39:25;;;;;;;0.30;0.30;;;23.20;99.90;;;;;;5114230;28;19915;-69
2023/06/19 06:41:51;;;;;;;0.30;0.30;;;23.10;99.90;;;;;;5114273;28;20376;-69
2023/06/19 06:44:16;;;;;;;0.20;0.20;;;23.00;99.90;;;;;;5114231;28;20281;-70
2023/06/19 06:46:42;;;;;;;0.30;0.30;;;23.00;99.90;;;;;;5114181;28;20051;-69
2023/06/19 06:49:07;;;;;;;0.30;0.30;;;22.90;99.90;;;;;;5114238;28;20040;-70
2023/06/19 06:51:33;;;;;;;0.40;0.40;;;23.00;99.90;;;;;;5113843;28;20040;-70
2023/06/19 06:53:59;;;;;;;0.30;0.30;;;23.00;99.90;;;;;;5114163;28;20078;-70
2023/06/19 06:56:24;;;;;;;0.30;0.30;;;23.00;99.90;;;;;;5115444;28;20046;-70
2023/06/19 06:58:50;;;;;;;0.30;0.30;;;23.00;99.90;;;;;;5118301;28;20044;-70
2023/06/19 07:01:15;;;;;;;0.40;0.40;;;22.90;99.90;;;;;;5118279;28;20084;-70
2023/06/19 07:03:41;;;;;;;0.40;0.40;;;23.00;99.90;;;;;;5118214;28;20042;-70
2023/06/19 07:06:09;;;;;;;0.30;0.30;;;22.90;99.90;;;;;;5118161;28;20050;-70
2023/06/19 07:08:35;;;;;;;0.40;0.40;;;22.80;99.90;;;;;;5117879;28;20505;-69
2023/06/19 07:11:00;;;;;;;0.30;0.30;;;22.80;99.90;;;;;;5118064;28;20036;-69
2023/06/19 07:13:26;;;;;;;0.30;0.30;;;22.80;99.90;;;;;;5118500;28;20450;-69
2023/06/19 07:15:52;;;;;;;0.55;0.55;;;22.90;99.90;;;;;;5118383;28;20383;-69
2023/06/19 07:18:17;;;;;;;0.30;0.30;;;23.10;99.90;;;;;;5118202;28;20043;-70
2023/06/19 07:20:43;;;;;;;0.30;0.30;;;23.10;99.90;;;;;;5117960;28;20390;-70
2023/06/19 07:23:10;;;;;;;0.20;0.20;;;23.10;99.90;;;;;;5117883;28;20028;-69
2023/06/19 07:25:38;;;;;;;;;;;23.10;99.90;;;;;;5117278;28;20126;-70
2023/06/19 07:28:04;;;;;;;0.20;0.20;;;23.10;99.90;;;;;;5117811;28;19922;-71
2023/06/19 07:30:30;;;;;;;0.30;0.30;;;23.10;99.90;;;;;;5117783;28;20036;-70
2023/06/19 07:32:56;;;;;;;0.30;0.30;;;23.00;99.90;;;;;;5117021;28;20051;-70
2023/06/19 07:35:21;;;;;;;0.30;0.30;;;23.00;99.90;;;;;;5117650;28;20039;-70
2023/06/19 07:37:47;;;;;;;1.50;0.40;;;22.80;99.90;;;;;;5116609;28;20368;-69
2023/06/19 07:40:13;;;;;;;0.40;0.40;;;22.80;99.90;;;;;;5117448;28;20043;-70
2023/06/19 07:42:38;;;;;;;0.30;0.30;;;22.70;99.90;;;;;;5117473;28;20075;-70
2023/06/19 07:45:05;;;;;;;0.30;0.30;;;22.60;99.90;;;;;;5116829;28;20071;-71
2023/06/19 07:47:30;;;;;;;0.30;0.30;;;22.60;99.90;;;;;;5117723;28;20438;-70
2023/06/19 07:49:56;;;;;;;0.30;0.30;;;22.70;99.90;;;;;;5117553;28;20075;-70
2023/06/19 07:52:21;;;;;;;0.30;0.30;;;22.90;99.90;;;;;;5117315;28;20123;-70
2023/06/19 07:54:52;;;;;;;0.30;0.30;;;23.00;99.90;;;;;;5117193;28;20211;-70
2023/06/19 07:57:18;;;;;;;0.82;0.82;;;23.10;99.90;;;;;;5117721;28;20416;-71
2023/06/19 07:59:44;;;;;;;0.30;0.30;;;23.40;99.90;;;;;;5117112;28;20186;-70
2023/06/19 08:02:10;;;;;;;;;;;23.60;99.90;;;;;;5117457;28;20057;-70
2023/06/19 08:04:36;;;;;;;0.30;0.30;;;23.70;99.90;;;;;;5116961;28;19916;-70
2023/06/19 08:07:01;;;;;;;0.20;0.20;;;23.70;99.90;;;;;;5116509;28;20027;-71
2023/06/19 08:09:27;;;;;;;0.20;0.20;;;23.50;99.90;;;;;;5116910;28;20039;-70
2023/06/19 08:11:52;;;;;;;0.30;0.30;;;23.50;99.90;;;;;;5116858;28;20032;-71
2023/06/19 08:14:18;;;;;;;0.30;0.30;;;23.50;99.90;;;;;;5116889;28;20127;-71
2023/06/19 08:16:43;;;;;;;0.30;0.30;;;23.40;99.90;;;;;;5117166;28;20040;-71
2023/06/19 08:19:09;;;;;;;0.20;0.20;;;23.30;99.90;;;;;;5116793;28;20375;-71
2023/06/19 08:21:34;;;;;;;0.20;0.20;;;23.30;99.90;;;;;;5116849;28;20118;-70
2023/06/19 08:24:00;;;;;;;0.20;0.20;;;23.20;99.90;;;;;;5116363;28;20047;-70
2023/06/19 08:26:26;;;;;;;0.50;0.50;;;23.20;99.90;;;;;;5116675;28;20157;-70
2023/06/19 08:28:51;;;;;;;0.30;0.30;;;23.10;99.90;;;;;;5116648;28;20046;-70
2023/06/19 08:31:17;;;;;;;0.30;0.30;;;23.00;99.90;;;;;;5115704;28;20131;-71
2023/06/19 08:33:42;;;;;;;0.30;0.30;;;23.00;99.90;;;;;;5116489;28;20035;-71
2023/06/19 08:36:08;;;;;;;0.30;0.30;;;23.00;99.90;;;;;;5115471;28;20384;-70
2023/06/19 08:38:33;;;;;;;0.50;0.50;;;23.00;99.90;;;;;;5116291;28;20036;-71
2023/06/19 08:40:59;;;;;;;0.60;0.60;;;23.00;99.90;;;;;;5116755;28;20105;-71
2023/06/19 08:43:25;;;;;;;0.30;0.30;;;23.00;99.90;;;;;;5115943;28;20044;-70
2023/06/19 08:46:20;;;;;;;0.30;0.30;;;23.00;99.90;;;;;;5115959;28;20130;-70
2023/06/19 08:48:46;;;;;;;0.20;0.20;;;23.10;99.90;;;;;;5110538;28;20490;-71
2023/06/19 08:51:13;;;;;;;0.30;0.30;;;23.30;99.90;;;;;;5116118;28;20093;-71
2023/06/19 08:53:47;;;;;;;0.30;0.30;;;23.30;99.90;;;;;;5116111;28;20085;-71
2023/06/19 08:56:13;;;;;;;0.30;0.30;;;23.20;99.90;;;;;;5116386;28;20039;-70
2023/06/19 08:58:39;;;;;;;0.30;0.30;;;23.10;99.90;;;;;;5116022;28;20349;-70
2023/06/19 09:01:04;;;;;;;0.30;0.30;;;23.00;99.90;;;;;;5114784;28;20095;-71
2023/06/19 09:03:30;;;;;;;0.53;0.40;;;22.90;99.90;;;;;;5115921;28;20036;-71
2023/06/19 09:05:56;;;;;;;0.30;0.30;;;22.70;99.90;;;;;;5115777;28;20051;-70
2023/06/19 09:08:22;;;;;;;0.43;0.40;;;22.60;99.90;;;;;;5115946;28;20047;-70
2023/06/19 09:10:59;;;;;;;0.30;0.30;;;22.60;99.90;;;;;;5116179;28;20043;-70
2023/06/19 09:13:25;;;;;;;0.30;0.30;;;22.40;99.90;;;;;;5115712;27;20040;-70
2023/06/19 09:15:59;;;;;;;0.30;0.30;;;22.30;99.90;;;;;;5115705;28;20036;-71
2023/06/19 09:18:30;;;;;;;0.32;0.32;;;22.10;99.90;;;;;;5114895;28;20043;-71
2023/06/19 09:20:57;;;;;;;0.43;0.43;;;22.00;99.90;;;;;;5115621;28;20045;-70
2023/06/19 09:23:23;;;;;;;0.30;0.30;;;22.00;99.90;;;;;;5114083;28;20477;-71
2023/06/19 09:25:50;;;;;;;;;;;22.00;99.90;;;;;;5115965;28;20122;-71
2023/06/19 09:28:20;;;;;;;0.30;0.30;;;22.10;99.90;;;;;;5115181;28;19922;-71
2023/06/19 09:30:59;;;;;;;0.55;0.40;;;22.20;99.90;;;;;;5115312;28;20036;-70
2023/06/19 09:33:27;;;;;;;0.40;0.40;;;22.30;99.90;;;;;;5115452;27;20122;-71
2023/06/19 09:35:54;;;;;;;0.30;0.30;;;22.30;99.90;;;;;;5115687;28;20054;-70
2023/06/19 09:38:25;;;;;;;0.30;0.30;;;22.40;99.90;;;;;;5115348;28;20036;-70
2023/06/19 09:40:52;;;;;;;0.40;0.40;;;22.60;99.90;;;;;;5113907;28;20131;-70
2023/06/19 09:43:25;;;;;;;;;;;22.80;99.90;;;;;;5114365;28;20043;-71
2023/06/19 09:45:55;;;;;;;0.43;0.43;;;23.10;99.90;;;;;;5115199;28;19919;-71
2023/06/19 09:48:26;;;;;;;0.30;0.30;;;23.50;99.90;;;;;;5115037;28;20114;-71
2023/06/19 09:50:56;;;;;;;0.30;0.30;;;23.90;99.90;;;;;;5115374;28;20038;-71
2023/06/19 09:53:23;;;;;;;0.45;0.45;;;24.10;99.90;;;;;;5115197;28;20047;-70
2023/06/19 09:55:52;;;;;;;1.75;1.05;;;24.30;99.90;;;;;;5114862;28;20587;-70
2023/06/19 09:58:19;;;;;;;0.40;0.40;;;24.60;99.90;;;;;;5114869;28;20044;-71
2023/06/19 10:00:47;;;;;;;0.77;0.77;;;24.90;99.90;;;;;;5114822;28;20051;-71
2023/06/19 10:03:13;;;;;;;1.05;1.02;;;25.20;99.90;;;;;;5114654;28;20082;-71
2023/06/19 10:05:39;;;;;;;0.50;0.50;;;25.30;99.90;;;;;;5114334;28;20082;-70
2023/06/19 10:08:05;;;;;;;0.37;0.37;;;25.30;99.90;;;;;;5114722;28;20043;-70
2023/06/19 10:10:31;;;;;;;0.40;0.40;;;25.10;99.90;;;;;;5114599;28;20100;-70
2023/06/19 10:13:12;;;;;;;0.40;0.40;;;25.00;99.90;;;;;;5113667;28;20452;-70
2023/06/19 10:15:42;;;;;;;0.93;0.88;;;25.20;99.90;;;;;;5115032;28;20054;-70
2023/06/19 10:18:12;;;;;;;0.50;0.50;;;25.30;99.90;;;;;;5114840;28;20053;-71
2023/06/19 10:20:39;;;;;;;1.48;0.82;;;25.40;99.90;;;;;;5114536;28;20048;-71
2023/06/19 10:23:16;;;;;;;0.30;0.30;;;25.50;99.90;;;;;;5096241;28;20376;-71
2023/06/19 10:25:45;;;;;;;0.43;0.43;;;25.60;99.90;;;;;;5114467;28;20044;-71
2023/06/19 10:28:28;;;;;;;0.47;0.47;;;25.80;99.90;;;;;;5114394;28;20039;-71
2023/06/19 10:31:01;;;;;;;0.30;0.30;;;25.80;99.90;;;;;;5114453;28;20035;-70
2023/06/19 10:33:34;;;;;;;0.73;0.73;;;25.60;99.90;;;;;;5114368;28;20078;-71
2023/06/19 10:36:17;;;;;;;0.55;0.55;;;25.60;99.90;;;;;;5114731;28;20459;-71
2023/06/19 10:38:49;;;;;;;0.47;0.47;;;25.80;99.90;;;;;;5113492;28;20044;-70
2023/06/19 10:41:19;;;;;;;0.20;0.20;;;25.90;99.90;;;;;;5114233;28;20085;-70
2023/06/19 10:43:59;;;;;;;0.20;0.20;;;25.80;99.90;;;;;;5114234;28;20066;-71
2023/06/19 10:46:33;;;;;;;0.77;0.77;;;26.00;99.90;;;;;;5114665;28;20032;-71
2023/06/19 10:49:04;;;;;;;0.55;0.55;;;26.00;99.90;;;;;;5114518;28;20048;-71
2023/06/19 10:51:43;;;;;;;0.30;0.30;;;26.00;99.90;;;;;;5113845;28;20475;-71
2023/06/19 10:54:09;;;;;;;0.40;0.40;;;26.10;99.90;;;;;;5114083;28;20043;-71
2023/06/19 10:56:35;;;;;;;0.90;0.85;;;26.20;99.90;;;;;;5113717;28;20042;-70
2023/06/19 10:59:05;;;;;;;0.30;0.30;;;26.10;99.90;;;;;;5113988;28;20039;-71
2023/06/19 11:01:39;;;;;;;0.30;0.30;;;26.10;99.90;;;;;;5113891;28;20115;-71
2023/06/19 11:04:06;;;;;;;0.40;0.40;;;26.10;99.90;;;;;;5114470;28;20035;-71
2023/06/19 11:06:33;;;;;;;0.45;0.45;;;26.10;99.90;;;;;;5114038;28;20070;-70
2023/06/19 11:09:00;;;;;;;0.40;0.40;;;26.30;99.90;;;;;;5113944;28;20471;-71
2023/06/19 11:11:35;;;;;;;0.95;0.82;;;26.40;99.90;;;;;;5113958;28;20066;-71
2023/06/19 11:14:01;;;;;;;0.30;0.30;;;26.50;99.90;;;;;;5113951;28;20051;-71
2023/06/19 11:16:27;;;;;;;0.50;0.50;;;26.80;99.90;;;;;;5113943;28;20036;-70
2023/06/19 11:18:56;;;;;;;;;;;26.60;99.90;;;;;;5114233;28;20046;-71
2023/06/19 11:21:34;;;;;;;0.50;0.40;;;26.50;99.90;;;;;;5113858;28;19926;-70
2023/06/19 11:24:00;;;;;;;0.73;0.55;;;26.50;99.90;;;;;;5113924;28;20047;-70
2023/06/19 11:26:26;;;;;;;0.30;0.30;;;26.70;99.90;;;;;;5112596;28;20395;-71
2023/06/19 11:28:52;;;;;;;0.30;0.30;;;26.80;99.90;;;;;;5113854;28;20036;-71
2023/06/19 11:31:25;;;;;;;0.30;0.30;;;27.00;99.90;;;;;;5113730;28;20112;-70
2023/06/19 11:33:59;;;;;;;0.93;0.93;;;27.00;99.90;;;;;;5113925;28;20369;-70
2023/06/19 11:36:24;;;;;;;0.38;0.38;;;27.20;99.40;;;;;;5113721;28;20093;-70
2023/06/19 11:38:52;;;;;;;0.40;0.40;;;27.20;99.40;;;;;;5113742;28;20043;-71
2023/06/19 11:41:28;;;;;;;0.30;0.30;;;27.40;99.20;;;;;;5113715;28;20044;-71
2023/06/19 11:44:05;;;;;;;0.40;0.40;;;27.30;98.00;;;;;;5117600;28;20039;-70
2023/06/19 11:46:31;;;;;;;;;;;27.10;98.50;;;;;;5117883;28;20047;-71
2023/06/19 11:49:09;;;;;;;0.30;0.30;;;27.30;98.60;;;;;;5117338;28;19915;-71
2023/06/19 11:51:36;;;;;;;0.40;0.40;;;27.30;98.70;;;;;;5116978;28;20463;-70
2023/06/19 11:54:02;;;;;;;;;;;27.10;98.30;;;;;;5116667;28;20046;-71
2023/06/19 11:56:28;;;;;;;0.30;0.30;;;27.20;98.20;;;;;;5117122;28;19967;-70
2023/06/19 11:58:54;;;;;;;1.58;0.50;;;27.40;98.10;;;;;;5117187;28;20038;-70
2023/06/19 12:01:20;;;;;;;0.30;0.30;;;27.50;98.20;;;;;;5116963;28;20031;-71
2023/06/19 12:03:46;;;;;;;3.78;1.10;;;27.50;97.30;;;;;;5117104;28;20047;-71
2023/06/19 12:06:11;;;;;;;0.30;0.30;;;27.50;97.50;;;;;;5117300;28;20052;-71
2023/06/19 12:08:37;;;;;;;0.30;0.30;;;27.40;97.20;;;;;;5117427;28;20422;-70
2023/06/19 12:11:05;;;;;;;0.40;0.40;;;27.30;97.50;;;;;;5116998;28;20031;-71
2023/06/19 12:13:30;;;;;;;0.45;0.30;;;27.20;97.40;;;;;;5116969;28;20047;-71
2023/06/19 12:15:56;;;;;;;0.43;0.43;;;27.00;97.30;;;;;;5116761;28;20047;-70
2023/06/19 12:18:21;;;;;;;0.30;0.30;;;26.90;97.30;;;;;;5117309;28;20375;-71
2023/06/19 12:20:47;;;;;;;0.47;0.47;;;27.00;97.60;;;;;;5116764;28;20483;-72
2023/06/19 12:23:13;;;;;;;0.30;0.30;;;26.80;98.00;;;;;;5117016;28;20039;-71
2023/06/19 12:25:38;;;;;;;0.30;0.30;;;26.70;97.60;;;;;;5116693;28;20042;-71
2023/06/19 12:28:07;;;;;;;0.50;0.50;;;26.70;98.10;;;;;;5116589;28;20040;-71
2023/06/19 12:30:34;;;;;;;0.30;0.30;;;26.90;98.30;;;;;;5116606;28;20130;-70
2023/06/19 12:32:59;;;;;;;0.30;0.30;;;27.00;97.60;;;;;;5115646;28;20069;-71
2023/06/19 12:35:25;;;;;;;0.63;0.63;;;26.90;97.70;;;;;;5116544;28;20035;-71
2023/06/19 12:37:52;;;;;;;0.30;0.30;;;27.00;97.70;;;;;;5116489;28;20036;-71
2023/06/19 12:40:18;;;;;;;0.30;0.30;;;27.00;97.80;;;;;;5116437;28;20062;-71
2023/06/19 12:42:43;;;;;;;0.30;0.30;;;27.10;97.90;;;;;;5116235;28;20118;-70
2023/06/19 12:45:09;;;;;;;0.30;0.30;;;27.20;98.30;;;;;;5116384;27;20092;-71
2023/06/19 12:47:36;;;;;;;0.90;0.90;;;26.90;98.10;;;;;;5116202;27;20031;-71
2023/06/19 12:50:02;;;;;;;0.77;0.68;;;26.70;98.50;;;;;;5116422;28;20041;-70